River Rouge, Michigan
Current Conditions -  °F | °C
As of 8:00 AM on Sunday 23 Nov 2014 (Local Time) from CYQG Reporting Station
Light Rain Light Rain  
Wind Chill: 36°   Ceiling: 6500
Heat Index: 43°   Visibility: 5mi
Dew Point: 41°   Wind: 13mph
Humidity: 93%   Direction: 190°S
Pressure: 29.93"   Gusts: NA
Location:  42.27°N, 83.13°W
Report Text: CYQG 231300Z 19011KT 5SM -RA BR FEW024 BKN065 OVC100 06/05 A2993 RMK SC1SC7AC1 SC TR SLP140
Loading
Personal Weather Stations






























Interactive Weather Map New forecast layout! Learn more

10-Day Weather Forecast

Advertisements
Track Severe Weather on mobile